sensor_id;sensor_type;location;lat;lon;timestamp;P1;P2;P0
55276;PMS5003;41136;51.478;-2.610;2023-04-07T00:00:42;8;5;
55276;PMS5003;41136;51.478;-2.610;2023-04-07T00:03:07;5;5;
55276;PMS5003;41136;51.478;-2.610;2023-04-07T00:05:32;5;4;
55276;PMS5003;41136;51.478;-2.610;2023-04-07T00:09:37;6;6;
55276;PMS5003;41136;51.478;-2.610;2023-04-07T00:14:49;6;6;
55276;PMS5003;41136;51.478;-2.610;2023-04-07T00:17:14;4;4;
55276;PMS5003;41136;51.478;-2.610;2023-04-07T00:19:40;6;4;
55276;PMS5003;41136;51.478;-2.610;2023-04-07T00:22:05;6;6;
55276;PMS5003;41136;51.478;-2.610;2023-04-07T00:24:30;5;5;
55276;PMS5003;41136;51.478;-2.610;2023-04-07T00:26:56;5;4;
55276;PMS5003;41136;51.478;-2.610;2023-04-07T00:29:21;4;4;
55276;PMS5003;41136;51.478;-2.610;2023-04-07T00:31:47;6;3;
55276;PMS5003;41136;51.478;-2.610;2023-04-07T00:34:12;3;3;
55276;PMS5003;41136;51.478;-2.610;2023-04-07T00:36:37;4;3;
55276;PMS5003;41136;51.478;-2.610;2023-04-07T00:39:03;4;4;
55276;PMS5003;41136;51.478;-2.610;2023-04-07T00:41:28;4;4;
55276;PMS5003;41136;51.478;-2.610;2023-04-07T00:43:54;3;3;
55276;PMS5003;41136;51.478;-2.610;2023-04-07T00:46:19;4;3;
55276;PMS5003;41136;51.478;-2.610;2023-04-07T00:48:44;5;5;
55276;PMS5003;41136;51.478;-2.610;2023-04-07T00:51:10;6;4;
55276;PMS5003;41136;51.478;-2.610;2023-04-07T00:53:35;5;5;
55276;PMS5003;41136;51.478;-2.610;2023-04-07T00:56:01;5;5;
55276;PMS5003;41136;51.478;-2.610;2023-04-07T00:58:26;4;4;
55276;PMS5003;41136;51.478;-2.610;2023-04-07T01:00:53;4;4;
55276;PMS5003;41136;51.478;-2.610;2023-04-07T01:03:18;5;4;
55276;PMS5003;41136;51.478;-2.610;2023-04-07T01:05:45;4;4;
55276;PMS5003;41136;51.478;-2.610;2023-04-07T01:08:10;3;3;
55276;PMS5003;41136;51.478;-2.610;2023-04-07T01:10:36;4;4;
55276;PMS5003;41136;51.478;-2.610;2023-04-07T01:13:00;6;4;
55276;PMS5003;41136;51.478;-2.610;2023-04-07T01:15:24;4;4;
55276;PMS5003;41136;51.478;-2.610;2023-04-07T01:17:51;3;3;
55276;PMS5003;41136;51.478;-2.610;2023-04-07T01:20:16;4;4;
55276;PMS5003;41136;51.478;-2.610;2023-04-07T01:22:41;4;4;
55276;PMS5003;41136;51.478;-2.610;2023-04-07T01:27:35;5;4;
55276;PMS5003;41136;51.478;-2.610;2023-04-07T01:29:57;4;3;
55276;PMS5003;41136;51.478;-2.610;2023-04-07T01:32:22;3;3;
55276;PMS5003;41136;51.478;-2.610;2023-04-07T01:34:47;3;3;
55276;PMS5003;41136;51.478;-2.610;2023-04-07T01:37:13;6;5;
55276;PMS5003;41136;51.478;-2.610;2023-04-07T01:39:38;6;3;
55276;PMS5003;41136;51.478;-2.610;2023-04-07T01:42:04;2;2;
55276;PMS5003;41136;51.478;-2.610;2023-04-07T01:44:30;3;3;
55276;PMS5003;41136;51.478;-2.610;2023-04-07T01:46:54;2;2;
55276;PMS5003;41136;51.478;-2.610;2023-04-07T01:49:20;3;3;
55276;PMS5003;41136;51.478;-2.610;2023-04-07T01:51:45;2;2;
55276;PMS5003;41136;51.478;-2.610;2023-04-07T01:54:10;2;2;
55276;PMS5003;41136;51.478;-2.610;2023-04-07T01:56:36;3;3;
55276;PMS5003;41136;51.478;-2.610;2023-04-07T01:59:01;3;2;
55276;PMS5003;41136;51.478;-2.610;2023-04-07T02:01:27;1;1;
55276;PMS5003;41136;51.478;-2.610;2023-04-07T02:03:53;3;3;
55276;PMS5003;41136;51.478;-2.610;2023-04-07T02:06:18;3;3;
55276;PMS5003;41136;51.478;-2.610;2023-04-07T02:08:45;6;5;
55276;PMS5003;41136;51.478;-2.610;2023-04-07T02:11:08;3;3;
55276;PMS5003;41136;51.478;-2.610;2023-04-07T02:13:34;3;3;
55276;PMS5003;41136;51.478;-2.610;2023-04-07T02:15:59;4;3;
55276;PMS5003;41136;51.478;-2.610;2023-04-07T02:18:24;3;3;
55276;PMS5003;41136;51.478;-2.610;2023-04-07T02:20:50;6;5;
55276;PMS5003;41136;51.478;-2.610;2023-04-07T02:23:15;3;3;
55276;PMS5003;41136;51.478;-2.610;2023-04-07T02:25:41;5;3;
55276;PMS5003;41136;51.478;-2.610;2023-04-07T02:28:06;4;4;
55276;PMS5003;41136;51.478;-2.610;2023-04-07T02:30:31;4;4;
55276;PMS5003;41136;51.478;-2.610;2023-04-07T02:32:57;5;3;
55276;PMS5003;41136;51.478;-2.610;2023-04-07T02:35:22;3;3;
55276;PMS5003;41136;51.478;-2.610;2023-04-07T02:37:48;5;3;
55276;PMS5003;41136;51.478;-2.610;2023-04-07T02:40:13;2;2;
55276;PMS5003;41136;51.478;-2.610;2023-04-07T02:42:38;7;4;
55276;PMS5003;41136;51.478;-2.610;2023-04-07T02:45:04;6;3;
55276;PMS5003;41136;51.478;-2.610;2023-04-07T02:47:29;4;4;
55276;PMS5003;41136;51.478;-2.610;2023-04-07T02:49:54;3;3;
55276;PMS5003;41136;51.478;-2.610;2023-04-07T02:52:20;4;4;
55276;PMS5003;41136;51.478;-2.610;2023-04-07T02:54:45;3;3;
55276;PMS5003;41136;51.478;-2.610;2023-04-07T02:57:11;4;3;
55276;PMS5003;41136;51.478;-2.610;2023-04-07T02:59:36;3;3;
55276;PMS5003;41136;51.478;-2.610;2023-04-07T03:02:02;4;4;
55276;PMS5003;41136;51.478;-2.610;2023-04-07T03:04:27;4;4;
55276;PMS5003;41136;51.478;-2.610;2023-04-07T03:06:52;3;3;
55276;PMS5003;41136;51.478;-2.610;2023-04-07T03:09:18;5;5;
55276;PMS5003;41136;51.478;-2.610;2023-04-07T03:11:43;4;4;
55276;PMS5003;41136;51.478;-2.610;2023-04-07T03:14:09;3;3;
55276;PMS5003;41136;51.478;-2.610;2023-04-07T03:16:34;4;4;
55276;PMS5003;41136;51.478;-2.610;2023-04-07T03:19:00;7;5;
55276;PMS5003;41136;51.478;-2.610;2023-04-07T03:21:25;5;3;
55276;PMS5003;41136;51.478;-2.610;2023-04-07T03:23:50;8;5;
55276;PMS5003;41136;51.478;-2.610;2023-04-07T03:26:16;5;5;
55276;PMS5003;41136;51.478;-2.610;2023-04-07T03:28:41;5;5;
55276;PMS5003;41136;51.478;-2.610;2023-04-07T03:31:07;4;4;
55276;PMS5003;41136;51.478;-2.610;2023-04-07T03:33:32;4;4;
55276;PMS5003;41136;51.478;-2.610;2023-04-07T03:43:26;4;4;
55276;PMS5003;41136;51.478;-2.610;2023-04-07T03:45:51;4;4;
55276;PMS5003;41136;51.478;-2.610;2023-04-07T03:48:17;5;5;
55276;PMS5003;41136;51.478;-2.610;2023-04-07T03:50:42;5;4;
55276;PMS5003;41136;51.478;-2.610;2023-04-07T03:53:08;3;3;
55276;PMS5003;41136;51.478;-2.610;2023-04-07T03:55:33;4;4;
55276;PMS5003;41136;51.478;-2.610;2023-04-07T03:57:58;4;4;
55276;PMS5003;41136;51.478;-2.610;2023-04-07T04:00:24;5;5;
55276;PMS5003;41136;51.478;-2.610;2023-04-07T04:02:49;5;5;
55276;PMS5003;41136;51.478;-2.610;2023-04-07T04:05:15;7;7;
55276;PMS5003;41136;51.478;-2.610;2023-04-07T04:07:40;6;4;
55276;PMS5003;41136;51.478;-2.610;2023-04-07T04:10:06;6;5;
55276;PMS5003;41136;51.478;-2.610;2023-04-07T04:12:31;4;4;
55276;PMS5003;41136;51.478;-2.610;2023-04-07T04:14:56;5;5;
55276;PMS5003;41136;51.478;-2.610;2023-04-07T04:17:22;8;7;
55276;PMS5003;41136;51.478;-2.610;2023-04-07T04:19:47;3;3;
55276;PMS5003;41136;51.478;-2.610;2023-04-07T04:22:12;3;3;
55276;PMS5003;41136;51.478;-2.610;2023-04-07T04:24:38;6;5;
55276;PMS5003;41136;51.478;-2.610;2023-04-07T04:27:03;3;3;
55276;PMS5003;41136;51.478;-2.610;2023-04-07T04:29:29;5;5;
55276;PMS5003;41136;51.478;-2.610;2023-04-07T04:31:54;9;5;
55276;PMS5003;41136;51.478;-2.610;2023-04-07T04:34:20;3;3;
55276;PMS5003;41136;51.478;-2.610;2023-04-07T04:36:45;2;2;
55276;PMS5003;41136;51.478;-2.610;2023-04-07T04:39:10;5;5;
55276;PMS5003;41136;51.478;-2.610;2023-04-07T04:41:36;5;4;
55276;PMS5003;41136;51.478;-2.610;2023-04-07T04:44:01;5;5;
55276;PMS5003;41136;51.478;-2.610;2023-04-07T04:46:27;4;4;
55276;PMS5003;41136;51.478;-2.610;2023-04-07T04:48:52;4;4;
55276;PMS5003;41136;51.478;-2.610;2023-04-07T04:51:18;4;4;
55276;PMS5003;41136;51.478;-2.610;2023-04-07T04:53:43;5;5;
55276;PMS5003;41136;51.478;-2.610;2023-04-07T04:56:08;4;3;
55276;PMS5003;41136;51.478;-2.610;2023-04-07T04:58:34;3;3;
55276;PMS5003;41136;51.478;-2.610;2023-04-07T05:00:59;4;4;
55276;PMS5003;41136;51.478;-2.610;2023-04-07T05:03:25;4;3;
55276;PMS5003;41136;51.478;-2.610;2023-04-07T05:05:50;4;4;
55276;PMS5003;41136;51.478;-2.610;2023-04-07T05:08:16;3;3;
55276;PMS5003;41136;51.478;-2.610;2023-04-07T05:10:41;4;4;
55276;PMS5003;41136;51.478;-2.610;2023-04-07T05:13:07;3;3;
55276;PMS5003;41136;51.478;-2.610;2023-04-07T05:15:32;7;4;
55276;PMS5003;41136;51.478;-2.610;2023-04-07T05:17:58;4;4;
55276;PMS5003;41136;51.478;-2.610;2023-04-07T05:20:23;3;3;
55276;PMS5003;41136;51.478;-2.610;2023-04-07T05:22:48;1;1;
55276;PMS5003;41136;51.478;-2.610;2023-04-07T05:25:14;3;3;
55276;PMS5003;41136;51.478;-2.610;2023-04-07T05:27:39;5;4;
55276;PMS5003;41136;51.478;-2.610;2023-04-07T05:30:05;4;4;
55276;PMS5003;41136;51.478;-2.610;2023-04-07T05:32:30;4;3;
55276;PMS5003;41136;51.478;-2.610;2023-04-07T05:34:56;2;2;
55276;PMS5003;41136;51.478;-2.610;2023-04-07T05:37:21;11;10;
55276;PMS5003;41136;51.478;-2.610;2023-04-07T05:39:46;4;4;
55276;PMS5003;41136;51.478;-2.610;2023-04-07T05:42:12;5;3;
55276;PMS5003;41136;51.478;-2.610;2023-04-07T05:44:37;6;4;
55276;PMS5003;41136;51.478;-2.610;2023-04-07T05:47:03;5;5;
55276;PMS5003;41136;51.478;-2.610;2023-04-07T05:49:28;5;5;
55276;PMS5003;41136;51.478;-2.610;2023-04-07T05:51:54;5;5;
55276;PMS5003;41136;51.478;-2.610;2023-04-07T05:54:19;5;5;
55276;PMS5003;41136;51.478;-2.610;2023-04-07T05:56:44;7;6;
55276;PMS5003;41136;51.478;-2.610;2023-04-07T05:59:10;5;5;
55276;PMS5003;41136;51.478;-2.610;2023-04-07T06:01:35;6;6;
55276;PMS5003;41136;51.478;-2.610;2023-04-07T06:04:01;5;5;
55276;PMS5003;41136;51.478;-2.610;2023-04-07T06:06:26;6;6;
55276;PMS5003;41136;51.478;-2.610;2023-04-07T06:08:52;6;6;
55276;PMS5003;41136;51.478;-2.610;2023-04-07T06:11:17;6;6;
55276;PMS5003;41136;51.478;-2.610;2023-04-07T06:13:43;8;5;
55276;PMS5003;41136;51.478;-2.610;2023-04-07T06:16:08;8;7;
55276;PMS5003;41136;51.478;-2.610;2023-04-07T06:18:34;8;6;
55276;PMS5003;41136;51.478;-2.610;2023-04-07T06:20:59;5;5;
55276;PMS5003;41136;51.478;-2.610;2023-04-07T06:23:24;5;5;
55276;PMS5003;41136;51.478;-2.610;2023-04-07T06:25:50;6;6;
55276;PMS5003;41136;51.478;-2.610;2023-04-07T06:28:15;6;6;
55276;PMS5003;41136;51.478;-2.610;2023-04-07T06:30:41;6;6;
55276;PMS5003;41136;51.478;-2.610;2023-04-07T06:33:06;5;5;
55276;PMS5003;41136;51.478;-2.610;2023-04-07T06:35:32;6;6;
55276;PMS5003;41136;51.478;-2.610;2023-04-07T06:37:57;5;5;
55276;PMS5003;41136;51.478;-2.610;2023-04-07T06:40:23;6;5;
55276;PMS5003;41136;51.478;-2.610;2023-04-07T06:42:48;6;6;
55276;PMS5003;41136;51.478;-2.610;2023-04-07T06:45:13;4;4;
55276;PMS5003;41136;51.478;-2.610;2023-04-07T06:47:39;4;4;
55276;PMS5003;41136;51.478;-2.610;2023-04-07T06:50:05;6;5;
55276;PMS5003;41136;51.478;-2.610;2023-04-07T06:52:30;5;5;
55276;PMS5003;41136;51.478;-2.610;2023-04-07T06:54:55;5;5;
55276;PMS5003;41136;51.478;-2.610;2023-04-07T06:57:21;6;6;
55276;PMS5003;41136;51.478;-2.610;2023-04-07T06:59:46;4;4;
55276;PMS5003;41136;51.478;-2.610;2023-04-07T07:02:11;5;5;
55276;PMS5003;41136;51.478;-2.610;2023-04-07T07:04:37;5;5;
55276;PMS5003;41136;51.478;-2.610;2023-04-07T07:07:02;4;3;
55276;PMS5003;41136;51.478;-2.610;2023-04-07T07:09:28;6;6;
55276;PMS5003;41136;51.478;-2.610;2023-04-07T07:11:53;6;6;
55276;PMS5003;41136;51.478;-2.610;2023-04-07T07:14:18;5;5;
55276;PMS5003;41136;51.478;-2.610;2023-04-07T07:16:44;7;7;
55276;PMS5003;41136;51.478;-2.610;2023-04-07T07:19:09;5;5;
55276;PMS5003;41136;51.478;-2.610;2023-04-07T07:21:35;8;7;
55276;PMS5003;41136;51.478;-2.610;2023-04-07T07:24:00;9;6;
55276;PMS5003;41136;51.478;-2.610;2023-04-07T07:26:25;6;6;
55276;PMS5003;41136;51.478;-2.610;2023-04-07T07:28:50;6;6;
55276;PMS5003;41136;51.478;-2.610;2023-04-07T07:31:16;6;5;
55276;PMS5003;41136;51.478;-2.610;2023-04-07T07:33:41;6;4;
55276;PMS5003;41136;51.478;-2.610;2023-04-07T07:36:07;5;5;
55276;PMS5003;41136;51.478;-2.610;2023-04-07T07:38:32;6;5;
55276;PMS5003;41136;51.478;-2.610;2023-04-07T07:40:57;8;6;
55276;PMS5003;41136;51.478;-2.610;2023-04-07T07:43:23;6;6;
55276;PMS5003;41136;51.478;-2.610;2023-04-07T07:45:48;8;8;
55276;PMS5003;41136;51.478;-2.610;2023-04-07T07:48:14;8;7;
55276;PMS5003;41136;51.478;-2.610;2023-04-07T07:50:39;5;5;
55276;PMS5003;41136;51.478;-2.610;2023-04-07T07:53:04;7;7;
55276;PMS5003;41136;51.478;-2.610;2023-04-07T07:55:30;6;4;
55276;PMS5003;41136;51.478;-2.610;2023-04-07T07:57:55;6;6;
55276;PMS5003;41136;51.478;-2.610;2023-04-07T08:00:21;3;3;
55276;PMS5003;41136;51.478;-2.610;2023-04-07T08:02:46;6;5;
55276;PMS5003;41136;51.478;-2.610;2023-04-07T08:05:11;3;3;
55276;PMS5003;41136;51.478;-2.610;2023-04-07T08:07:37;2;1;
55276;PMS5003;41136;51.478;-2.610;2023-04-07T08:10:02;3;2;
55276;PMS5003;41136;51.478;-2.610;2023-04-07T08:12:28;2;2;
55276;PMS5003;41136;51.478;-2.610;2023-04-07T08:14:53;1;1;
55276;PMS5003;41136;51.478;-2.610;2023-04-07T08:17:18;2;1;
55276;PMS5003;41136;51.478;-2.610;2023-04-07T08:19:44;1;1;
55276;PMS5003;41136;51.478;-2.610;2023-04-07T08:22:09;3;2;
55276;PMS5003;41136;51.478;-2.610;2023-04-07T08:24:34;2;2;
55276;PMS5003;41136;51.478;-2.610;2023-04-07T08:27:00;2;2;
55276;PMS5003;41136;51.478;-2.610;2023-04-07T08:29:25;2;2;
55276;PMS5003;41136;51.478;-2.610;2023-04-07T08:31:50;1;1;
55276;PMS5003;41136;51.478;-2.610;2023-04-07T08:34:16;3;1;
55276;PMS5003;41136;51.478;-2.610;2023-04-07T08:36:41;0;0;
55276;PMS5003;41136;51.478;-2.610;2023-04-07T08:39:07;2;2;
55276;PMS5003;41136;51.478;-2.610;2023-04-07T08:41:32;2;2;
55276;PMS5003;41136;51.478;-2.610;2023-04-07T08:43:57;1;1;
55276;PMS5003;41136;51.478;-2.610;2023-04-07T08:46:23;5;1;
55276;PMS5003;41136;51.478;-2.610;2023-04-07T08:48:49;2;0;
55276;PMS5003;41136;51.478;-2.610;2023-04-07T08:51:14;0;0;
55276;PMS5003;41136;51.478;-2.610;2023-04-07T08:53:40;3;2;
55276;PMS5003;41136;51.478;-2.610;2023-04-07T08:56:04;3;2;
55276;PMS5003;41136;51.478;-2.610;2023-04-07T08:58:29;1;1;
55276;PMS5003;41136;51.478;-2.610;2023-04-07T09:00:55;3;2;
55276;PMS5003;41136;51.478;-2.610;2023-04-07T09:03:20;4;3;
55276;PMS5003;41136;51.478;-2.610;2023-04-07T09:05:46;4;1;
55276;PMS5003;41136;51.478;-2.610;2023-04-07T09:08:11;4;3;
55276;PMS5003;41136;51.478;-2.610;2023-04-07T09:10:36;3;1;
55276;PMS5003;41136;51.478;-2.610;2023-04-07T09:13:02;1;1;
55276;PMS5003;41136;51.478;-2.610;2023-04-07T09:15:29;3;3;
55276;PMS5003;41136;51.478;-2.610;2023-04-07T09:17:52;3;3;
55276;PMS5003;41136;51.478;-2.610;2023-04-07T09:20:18;1;1;
55276;PMS5003;41136;51.478;-2.610;2023-04-07T09:22:46;4;3;
55276;PMS5003;41136;51.478;-2.610;2023-04-07T09:25:09;3;3;
55276;PMS5003;41136;51.478;-2.610;2023-04-07T09:27:33;2;1;
55276;PMS5003;41136;51.478;-2.610;2023-04-07T09:30:09;2;2;
55276;PMS5003;41136;51.478;-2.610;2023-04-07T09:34:50;1;1;
55276;PMS5003;41136;51.478;-2.610;2023-04-07T09:37:21;2;2;
55276;PMS5003;41136;51.478;-2.610;2023-04-07T09:42:06;1;1;
55276;PMS5003;41136;51.478;-2.610;2023-04-07T09:44:31;3;2;
55276;PMS5003;41136;51.478;-2.610;2023-04-07T09:46:57;2;0;
55276;PMS5003;41136;51.478;-2.610;2023-04-07T09:49:22;3;2;
55276;PMS5003;41136;51.478;-2.610;2023-04-07T09:54:12;1;1;
55276;PMS5003;41136;51.478;-2.610;2023-04-07T09:56:38;1;1;
55276;PMS5003;41136;51.478;-2.610;2023-04-07T09:59:03;1;1;
55276;PMS5003;41136;51.478;-2.610;2023-04-07T10:01:28;3;3;
55276;PMS5003;41136;51.478;-2.610;2023-04-07T10:03:54;2;2;
55276;PMS5003;41136;51.478;-2.610;2023-04-07T10:06:19;3;1;
55276;PMS5003;41136;51.478;-2.610;2023-04-07T10:08:44;1;1;
55276;PMS5003;41136;51.478;-2.610;2023-04-07T10:11:10;0;0;
55276;PMS5003;41136;51.478;-2.610;2023-04-07T10:13:36;2;2;
55276;PMS5003;41136;51.478;-2.610;2023-04-07T10:16:02;2;1;
55276;PMS5003;41136;51.478;-2.610;2023-04-07T10:18:27;1;1;
55276;PMS5003;41136;51.478;-2.610;2023-04-07T10:20:51;1;1;
55276;PMS5003;41136;51.478;-2.610;2023-04-07T10:23:18;1;1;
55276;PMS5003;41136;51.478;-2.610;2023-04-07T10:25:42;0;0;
55276;PMS5003;41136;51.478;-2.610;2023-04-07T10:28:07;3;1;
55276;PMS5003;41136;51.478;-2.610;2023-04-07T10:30:32;0;0;
55276;PMS5003;41136;51.478;-2.610;2023-04-07T10:32:58;1;1;
55276;PMS5003;41136;51.478;-2.610;2023-04-07T10:35:23;1;1;
55276;PMS5003;41136;51.478;-2.610;2023-04-07T10:42:43;1;1;
55276;PMS5003;41136;51.478;-2.610;2023-04-07T10:45:05;0;0;
55276;PMS5003;41136;51.478;-2.610;2023-04-07T10:47:30;1;1;
55276;PMS5003;41136;51.478;-2.610;2023-04-07T10:52:21;1;1;
55276;PMS5003;41136;51.478;-2.610;2023-04-07T10:54:46;1;1;
55276;PMS5003;41136;51.478;-2.610;2023-04-07T10:57:11;1;0;
55276;PMS5003;41136;51.478;-2.610;2023-04-07T10:59:37;1;1;
55276;PMS5003;41136;51.478;-2.610;2023-04-07T11:06:52;1;0;
55276;PMS5003;41136;51.478;-2.610;2023-04-07T11:09:18;0;0;
55276;PMS5003;41136;51.478;-2.610;2023-04-07T11:11:43;3;1;
55276;PMS5003;41136;51.478;-2.610;2023-04-07T11:14:08;2;1;
55276;PMS5003;41136;51.478;-2.610;2023-04-07T11:16:35;2;2;
55276;PMS5003;41136;51.478;-2.610;2023-04-07T11:18:59;0;0;
55276;PMS5003;41136;51.478;-2.610;2023-04-07T11:21:24;1;1;
55276;PMS5003;41136;51.478;-2.610;2023-04-07T11:23:50;1;1;
55276;PMS5003;41136;51.478;-2.610;2023-04-07T11:26:15;1;1;
55276;PMS5003;41136;51.478;-2.610;2023-04-07T11:28:44;1;0;
55276;PMS5003;41136;51.478;-2.610;2023-04-07T11:31:06;0;0;
55276;PMS5003;41136;51.478;-2.610;2023-04-07T11:33:31;1;1;
55276;PMS5003;41136;51.478;-2.610;2023-04-07T11:35:57;1;0;
55276;PMS5003;41136;51.478;-2.610;2023-04-07T11:38:22;0;0;
55276;PMS5003;41136;51.478;-2.610;2023-04-07T11:40:47;2;2;
55276;PMS5003;41136;51.478;-2.610;2023-04-07T11:43:16;2;1;
55276;PMS5003;41136;51.478;-2.610;2023-04-07T11:45:38;0;0;
55276;PMS5003;41136;51.478;-2.610;2023-04-07T11:48:03;1;1;
55276;PMS5003;41136;51.478;-2.610;2023-04-07T11:52:54;0;0;
55276;PMS5003;41136;51.478;-2.610;2023-04-07T11:55:19;0;0;
55276;PMS5003;41136;51.478;-2.610;2023-04-07T11:57:44;0;0;
55276;PMS5003;41136;51.478;-2.610;2023-04-07T12:00:10;1;1;
55276;PMS5003;41136;51.478;-2.610;2023-04-07T12:02:35;0;0;
55276;PMS5003;41136;51.478;-2.610;2023-04-07T12:05:00;0;0;
55276;PMS5003;41136;51.478;-2.610;2023-04-07T12:07:26;0;0;
55276;PMS5003;41136;51.478;-2.610;2023-04-07T12:09:52;0;0;
55276;PMS5003;41136;51.478;-2.610;2023-04-07T12:14:42;0;0;
55276;PMS5003;41136;51.478;-2.610;2023-04-07T12:17:13;1;1;
55276;PMS5003;41136;51.478;-2.610;2023-04-07T12:19:32;0;0;
55276;PMS5003;41136;51.478;-2.610;2023-04-07T12:21:57;0;0;
55276;PMS5003;41136;51.478;-2.610;2023-04-07T12:24:23;0;0;
55276;PMS5003;41136;51.478;-2.610;2023-04-07T12:26:48;1;1;
55276;PMS5003;41136;51.478;-2.610;2023-04-07T12:29:15;1;1;
55276;PMS5003;41136;51.478;-2.610;2023-04-07T12:31:39;0;0;
55276;PMS5003;41136;51.478;-2.610;2023-04-07T12:34:04;0;0;
55276;PMS5003;41136;51.478;-2.610;2023-04-07T12:36:30;0;0;
55276;PMS5003;41136;51.478;-2.610;2023-04-07T12:38:55;1;1;
55276;PMS5003;41136;51.478;-2.610;2023-04-07T12:41:20;0;0;
55276;PMS5003;41136;51.478;-2.610;2023-04-07T12:43:45;0;0;
55276;PMS5003;41136;51.478;-2.610;2023-04-07T12:46:11;1;0;
55276;PMS5003;41136;51.478;-2.610;2023-04-07T12:48:36;0;0;
55276;PMS5003;41136;51.478;-2.610;2023-04-07T12:51:01;0;0;
55276;PMS5003;41136;51.478;-2.610;2023-04-07T12:53:26;1;0;
55276;PMS5003;41136;51.478;-2.610;2023-04-07T12:55:52;0;0;
55276;PMS5003;41136;51.478;-2.610;2023-04-07T12:58:17;0;0;
55276;PMS5003;41136;51.478;-2.610;2023-04-07T13:00:42;0;0;
55276;PMS5003;41136;51.478;-2.610;2023-04-07T13:03:08;0;0;
55276;PMS5003;41136;51.478;-2.610;2023-04-07T13:05:33;1;1;
55276;PMS5003;41136;51.478;-2.610;2023-04-07T13:07:58;0;0;
55276;PMS5003;41136;51.478;-2.610;2023-04-07T13:10:24;0;0;
55276;PMS5003;41136;51.478;-2.610;2023-04-07T13:12:49;0;0;
55276;PMS5003;41136;51.478;-2.610;2023-04-07T13:15:14;0;0;
55276;PMS5003;41136;51.478;-2.610;2023-04-07T13:17:40;0;0;
55276;PMS5003;41136;51.478;-2.610;2023-04-07T13:20:05;0;0;
55276;PMS5003;41136;51.478;-2.610;2023-04-07T13:22:30;0;0;
55276;PMS5003;41136;51.478;-2.610;2023-04-07T13:24:56;1;0;
55276;PMS5003;41136;51.478;-2.610;2023-04-07T13:27:21;0;0;
55276;PMS5003;41136;51.478;-2.610;2023-04-07T13:29:46;0;0;
55276;PMS5003;41136;51.478;-2.610;2023-04-07T13:32:12;0;0;
55276;PMS5003;41136;51.478;-2.610;2023-04-07T13:34:37;0;0;
55276;PMS5003;41136;51.478;-2.610;2023-04-07T13:37:02;1;1;
55276;PMS5003;41136;51.478;-2.610;2023-04-07T13:39:28;0;0;
55276;PMS5003;41136;51.478;-2.610;2023-04-07T13:41:53;0;0;
55276;PMS5003;41136;51.478;-2.610;2023-04-07T13:44:18;0;0;
55276;PMS5003;41136;51.478;-2.610;2023-04-07T13:46:43;0;0;
55276;PMS5003;41136;51.478;-2.610;2023-04-07T13:49:09;1;0;
55276;PMS5003;41136;51.478;-2.610;2023-04-07T13:51:34;0;0;
55276;PMS5003;41136;51.478;-2.610;2023-04-07T13:53:59;0;0;
55276;PMS5003;41136;51.478;-2.610;2023-04-07T13:56:25;0;0;
55276;PMS5003;41136;51.478;-2.610;2023-04-07T13:58:50;0;0;
55276;PMS5003;41136;51.478;-2.610;2023-04-07T14:01:15;0;0;
55276;PMS5003;41136;51.478;-2.610;2023-04-07T14:03:40;0;0;
55276;PMS5003;41136;51.478;-2.610;2023-04-07T14:06:06;0;0;
55276;PMS5003;41136;51.478;-2.610;2023-04-07T14:08:31;0;0;
55276;PMS5003;41136;51.478;-2.610;2023-04-07T14:10:56;1;0;
55276;PMS5003;41136;51.478;-2.610;2023-04-07T14:13:22;0;0;
55276;PMS5003;41136;51.478;-2.610;2023-04-07T14:15:47;0;0;
55276;PMS5003;41136;51.478;-2.610;2023-04-07T14:18:12;0;0;
55276;PMS5003;41136;51.478;-2.610;2023-04-07T14:20:38;0;0;
55276;PMS5003;41136;51.478;-2.610;2023-04-07T14:23:03;0;0;
55276;PMS5003;41136;51.478;-2.610;2023-04-07T14:25:28;0;0;
55276;PMS5003;41136;51.478;-2.610;2023-04-07T14:27:53;0;0;
55276;PMS5003;41136;51.478;-2.610;2023-04-07T14:30:19;0;0;
55276;PMS5003;41136;51.478;-2.610;2023-04-07T14:32:44;2;0;
55276;PMS5003;41136;51.478;-2.610;2023-04-07T14:35:09;0;0;
55276;PMS5003;41136;51.478;-2.610;2023-04-07T14:37:35;0;0;
55276;PMS5003;41136;51.478;-2.610;2023-04-07T14:40:00;0;0;
55276;PMS5003;41136;51.478;-2.610;2023-04-07T14:42:25;0;0;
55276;PMS5003;41136;51.478;-2.610;2023-04-07T14:44:51;0;0;
55276;PMS5003;41136;51.478;-2.610;2023-04-07T14:47:16;0;0;
55276;PMS5003;41136;51.478;-2.610;2023-04-07T14:49:41;1;1;
55276;PMS5003;41136;51.478;-2.610;2023-04-07T14:52:06;0;0;
55276;PMS5003;41136;51.478;-2.610;2023-04-07T14:54:32;0;0;
55276;PMS5003;41136;51.478;-2.610;2023-04-07T14:56:57;0;0;
55276;PMS5003;41136;51.478;-2.610;2023-04-07T14:59:22;1;1;
55276;PMS5003;41136;51.478;-2.610;2023-04-07T15:01:48;0;0;
55276;PMS5003;41136;51.478;-2.610;2023-04-07T15:04:13;1;1;
55276;PMS5003;41136;51.478;-2.610;2023-04-07T15:06:39;0;0;
55276;PMS5003;41136;51.478;-2.610;2023-04-07T15:09:04;1;1;
55276;PMS5003;41136;51.478;-2.610;2023-04-07T15:11:29;1;1;
55276;PMS5003;41136;51.478;-2.610;2023-04-07T15:13:54;0;0;
55276;PMS5003;41136;51.478;-2.610;2023-04-07T15:16:19;1;1;
55276;PMS5003;41136;51.478;-2.610;2023-04-07T15:18:45;0;0;
55276;PMS5003;41136;51.478;-2.610;2023-04-07T15:21:10;0;0;
55276;PMS5003;41136;51.478;-2.610;2023-04-07T15:23:36;0;0;
55276;PMS5003;41136;51.478;-2.610;2023-04-07T15:26:01;0;0;
55276;PMS5003;41136;51.478;-2.610;2023-04-07T15:28:26;1;1;
55276;PMS5003;41136;51.478;-2.610;2023-04-07T15:30:51;0;0;
55276;PMS5003;41136;51.478;-2.610;2023-04-07T15:33:17;0;0;
55276;PMS5003;41136;51.478;-2.610;2023-04-07T15:35:42;0;0;
55276;PMS5003;41136;51.478;-2.610;2023-04-07T15:38:07;0;0;
55276;PMS5003;41136;51.478;-2.610;2023-04-07T15:40:34;0;0;
55276;PMS5003;41136;51.478;-2.610;2023-04-07T15:42:58;0;0;
55276;PMS5003;41136;51.478;-2.610;2023-04-07T15:45:24;0;0;
55276;PMS5003;41136;51.478;-2.610;2023-04-07T15:47:49;1;1;
55276;PMS5003;41136;51.478;-2.610;2023-04-07T15:50:14;0;0;
55276;PMS5003;41136;51.478;-2.610;2023-04-07T15:52:39;0;0;
55276;PMS5003;41136;51.478;-2.610;2023-04-07T15:55:05;0;0;
55276;PMS5003;41136;51.478;-2.610;2023-04-07T15:57:30;0;0;
55276;PMS5003;41136;51.478;-2.610;2023-04-07T16:01:23;0;0;
55276;PMS5003;41136;51.478;-2.610;2023-04-07T16:03:48;2;2;
55276;PMS5003;41136;51.478;-2.610;2023-04-07T16:06:13;1;0;
55276;PMS5003;41136;51.478;-2.610;2023-04-07T16:08:38;0;0;
55276;PMS5003;41136;51.478;-2.610;2023-04-07T16:11:04;0;0;
55276;PMS5003;41136;51.478;-2.610;2023-04-07T16:13:29;1;1;
55276;PMS5003;41136;51.478;-2.610;2023-04-07T16:15:55;0;0;
55276;PMS5003;41136;51.478;-2.610;2023-04-07T16:18:20;1;0;
55276;PMS5003;41136;51.478;-2.610;2023-04-07T16:20:45;3;1;
55276;PMS5003;41136;51.478;-2.610;2023-04-07T16:23:10;1;1;
55276;PMS5003;41136;51.478;-2.610;2023-04-07T16:25:36;0;0;
55276;PMS5003;41136;51.478;-2.610;2023-04-07T16:28:01;0;0;
55276;PMS5003;41136;51.478;-2.610;2023-04-07T16:30:26;1;1;
55276;PMS5003;41136;51.478;-2.610;2023-04-07T16:32:51;2;0;
55276;PMS5003;41136;51.478;-2.610;2023-04-07T16:35:17;1;1;
55276;PMS5003;41136;51.478;-2.610;2023-04-07T16:37:42;0;0;
55276;PMS5003;41136;51.478;-2.610;2023-04-07T16:40:08;1;1;
55276;PMS5003;41136;51.478;-2.610;2023-04-07T16:42:33;1;1;
55276;PMS5003;41136;51.478;-2.610;2023-04-07T16:44:58;0;0;
55276;PMS5003;41136;51.478;-2.610;2023-04-07T16:47:24;1;1;
55276;PMS5003;41136;51.478;-2.610;2023-04-07T16:52:05;0;0;
55276;PMS5003;41136;51.478;-2.610;2023-04-07T16:54:32;7;4;
55276;PMS5003;41136;51.478;-2.610;2023-04-07T17:12:36;5;5;
55276;PMS5003;41136;51.478;-2.610;2023-04-07T17:15:02;0;0;
55276;PMS5003;41136;51.478;-2.610;2023-04-07T17:17:27;2;2;